TAF Text Data
IDs:
Format:
Raw Decoded Include METAR

Data at: 2016 UTC 23 Oct 2021

KMKT 231720Z 2318/2418 10008KT P6SM SKC
  FM240100 10006KT P6SM BKN250
  FM241400 08011KT P6SM OVC120